JLY1020 SBSL-SNCW
Flight info
| Callsign | JLY1020 |
|---|---|
| Flight time | 0h 17m |
| Altitude | 3500 |
| Route | SL049 |
| Aircraft | C208/L-SDFGR/C |
Departure
| Time | 2026-04-20 20:53 |
|---|---|
| Airport | Marechal Cunha Machado International Airport (SBSL) |
Arrival
| Time | 2026-04-20 21:10 |
|---|---|
| Airport | Alcântara Space Center Airport (SNCW) |
| Time | Latitude | Longitude | Altitude | Speed | Heading |
|---|---|---|---|---|---|
| 2026-04-20 20:42 | -2.58271 | -44.23457 | 162 ft | 0 kts | 221° |
| 2026-04-20 20:49 | -2.58310 | -44.23475 | 162 ft | 12 kts | 185° |
| 2026-04-20 20:49 | -2.58424 | -44.23462 | 161 ft | 19 kts | 137° |
| 2026-04-20 20:50 | -2.58498 | -44.23394 | 161 ft | 14 kts | 182° |
| 2026-04-20 20:50 | -2.58607 | -44.23464 | 163 ft | 23 kts | 220° |
| 2026-04-20 20:50 | -2.58759 | -44.23583 | 162 ft | 32 kts | 219° |
| 2026-04-20 20:50 | -2.58852 | -44.23658 | 161 ft | 6 kts | 219° |
| 2026-04-20 20:51 | -2.58917 | -44.23712 | 161 ft | 18 kts | 219° |
| 2026-04-20 20:51 | -2.59042 | -44.23816 | 159 ft | 28 kts | 226° |
| 2026-04-20 20:51 | -2.59126 | -44.23879 | 159 ft | 5 kts | 84° |
| 2026-04-20 20:51 | -2.59113 | -44.23867 | 159 ft | 0 kts | 39° |
| 2026-04-20 20:52 | -2.59048 | -44.23815 | 159 ft | 38 kts | 39° |
| 2026-04-20 20:52 | -2.58703 | -44.23539 | 163 ft | 86 kts | 38° |
| 2026-04-20 20:53 | -2.58194 | -44.23114 | 336 ft | 99 kts | 42° |
| 2026-04-20 20:53 | -2.57596 | -44.22736 | 568 ft | 109 kts | 18° |
| 2026-04-20 20:53 | -2.56837 | -44.22711 | 846 ft | 115 kts | 338° |
| 2026-04-20 20:53 | -2.56160 | -44.23164 | 1124 ft | 121 kts | 309° |
| 2026-04-20 20:54 | -2.55704 | -44.23855 | 1504 ft | 116 kts | 304° |
| 2026-04-20 20:54 | -2.55327 | -44.24566 | 1825 ft | 117 kts | 290° |
| 2026-04-20 20:54 | -2.54912 | -44.25265 | 2122 ft | 118 kts | 320° |
| 2026-04-20 20:54 | -2.54209 | -44.25672 | 2438 ft | 117 kts | 335° |
| 2026-04-20 20:55 | -2.53484 | -44.26050 | 2732 ft | 119 kts | 335° |
| 2026-04-20 20:55 | -2.52742 | -44.26414 | 3032 ft | 119 kts | 337° |
| 2026-04-20 20:55 | -2.52231 | -44.26653 | 3239 ft | 120 kts | 338° |
| 2026-04-20 20:55 | -2.51479 | -44.27011 | 3496 ft | 126 kts | 337° |
| 2026-04-20 20:56 | -2.50615 | -44.27422 | 3510 ft | 147 kts | 336° |
| 2026-04-20 20:56 | -2.49647 | -44.27884 | 3510 ft | 160 kts | 336° |
| 2026-04-20 20:56 | -2.48617 | -44.28370 | 3507 ft | 167 kts | 336° |
| 2026-04-20 20:56 | -2.47554 | -44.28873 | 3510 ft | 170 kts | 336° |
| 2026-04-20 20:57 | -2.46478 | -44.29381 | 3506 ft | 172 kts | 336° |
| 2026-04-20 20:57 | -2.45421 | -44.29948 | 3508 ft | 175 kts | 323° |
| 2026-04-20 20:57 | -2.44691 | -44.30897 | 3506 ft | 172 kts | 296° |
| 2026-04-20 20:57 | -2.44434 | -44.32043 | 3505 ft | 169 kts | 269° |
| 2026-04-20 20:58 | -2.44666 | -44.33176 | 3507 ft | 166 kts | 249° |
| 2026-04-20 20:58 | -2.45041 | -44.34262 | 3507 ft | 165 kts | 251° |
| 2026-04-20 20:58 | -2.45393 | -44.35349 | 3505 ft | 164 kts | 251° |
| 2026-04-20 20:58 | -2.45750 | -44.36430 | 3504 ft | 163 kts | 250° |
| 2026-04-20 20:59 | -2.46110 | -44.37509 | 3505 ft | 164 kts | 250° |
| 2026-04-20 20:59 | -2.46466 | -44.38573 | 3508 ft | 164 kts | 250° |
| 2026-04-20 20:59 | -2.46827 | -44.39653 | 3505 ft | 164 kts | 250° |
| 2026-04-20 20:59 | -2.47186 | -44.40731 | 3505 ft | 163 kts | 250° |
| 2026-04-20 21:00 | -2.47546 | -44.41811 | 3504 ft | 164 kts | 251° |
| 2026-04-20 21:00 | -2.47904 | -44.42892 | 3508 ft | 163 kts | 250° |
| 2026-04-20 21:00 | -2.48265 | -44.43970 | 3420 ft | 163 kts | 250° |
| 2026-04-20 21:00 | -2.48625 | -44.45037 | 3263 ft | 160 kts | 250° |
| 2026-04-20 21:01 | -2.48976 | -44.46091 | 3111 ft | 159 kts | 251° |
| 2026-04-20 21:01 | -2.49325 | -44.47141 | 2957 ft | 159 kts | 251° |
| 2026-04-20 21:01 | -2.49669 | -44.48174 | 2800 ft | 158 kts | 250° |
| 2026-04-20 21:01 | -2.50014 | -44.49208 | 2694 ft | 155 kts | 251° |
| 2026-04-20 21:02 | -2.50353 | -44.50238 | 2590 ft | 157 kts | 251° |
| 2026-04-20 21:02 | -2.50695 | -44.51266 | 2492 ft | 155 kts | 251° |
| 2026-04-20 21:02 | -2.51036 | -44.52289 | 2390 ft | 154 kts | 251° |
| 2026-04-20 21:02 | -2.51380 | -44.53306 | 2293 ft | 156 kts | 251° |
| 2026-04-20 21:03 | -2.51713 | -44.54332 | 2189 ft | 154 kts | 255° |
| 2026-04-20 21:03 | -2.51698 | -44.55391 | 2083 ft | 153 kts | 287° |
| 2026-04-20 21:03 | -2.51184 | -44.56304 | 2005 ft | 150 kts | 316° |
| 2026-04-20 21:03 | -2.50345 | -44.56858 | 2002 ft | 143 kts | 342° |
| 2026-04-20 21:04 | -2.49383 | -44.56983 | 2002 ft | 140 kts | 6° |
| 2026-04-20 21:04 | -2.48396 | -44.56921 | 2007 ft | 144 kts | 5° |
| 2026-04-20 21:04 | -2.47391 | -44.56882 | 2007 ft | 145 kts | 5° |
| 2026-04-20 21:04 | -2.46378 | -44.56837 | 2007 ft | 146 kts | 4° |
| 2026-04-20 21:05 | -2.45362 | -44.56792 | 2010 ft | 146 kts | 5° |
| 2026-04-20 21:05 | -2.44343 | -44.56743 | 2008 ft | 147 kts | 5° |
| 2026-04-20 21:05 | -2.43339 | -44.56605 | 2003 ft | 145 kts | 23° |
| 2026-04-20 21:05 | -2.42545 | -44.56005 | 2002 ft | 144 kts | 52° |
| 2026-04-20 21:06 | -2.42128 | -44.55108 | 2003 ft | 143 kts | 75° |
| 2026-04-20 21:06 | -2.41845 | -44.54164 | 2008 ft | 144 kts | 72° |
| 2026-04-20 21:06 | -2.41541 | -44.53215 | 2009 ft | 143 kts | 72° |
| 2026-04-20 21:06 | -2.41243 | -44.52266 | 2010 ft | 143 kts | 72° |
| 2026-04-20 21:07 | -2.40946 | -44.51317 | 2008 ft | 143 kts | 72° |
| 2026-04-20 21:07 | -2.40649 | -44.50369 | 2010 ft | 142 kts | 72° |
| 2026-04-20 21:07 | -2.40350 | -44.49410 | 1912 ft | 148 kts | 72° |
| 2026-04-20 21:07 | -2.40036 | -44.48420 | 1725 ft | 148 kts | 72° |
| 2026-04-20 21:08 | -2.39732 | -44.47450 | 1528 ft | 144 kts | 72° |
| 2026-04-20 21:08 | -2.39440 | -44.46518 | 1342 ft | 138 kts | 72° |
| 2026-04-20 21:08 | -2.39160 | -44.45610 | 1158 ft | 136 kts | 72° |
| 2026-04-20 21:08 | -2.38881 | -44.44712 | 980 ft | 135 kts | 72° |
| 2026-04-20 21:09 | -2.38604 | -44.43826 | 815 ft | 129 kts | 72° |
| 2026-04-20 21:09 | -2.38354 | -44.43029 | 658 ft | 111 kts | 72° |
| 2026-04-20 21:09 | -2.38137 | -44.42322 | 484 ft | 104 kts | 72° |
| 2026-04-20 21:09 | -2.37926 | -44.41659 | 361 ft | 97 kts | 72° |
| 2026-04-20 21:10 | -2.37729 | -44.41022 | 242 ft | 94 kts | 72° |
| 2026-04-20 21:10 | -2.37542 | -44.40422 | 154 ft | 83 kts | 72° |
| 2026-04-20 21:10 | -2.37389 | -44.39934 | 152 ft | 69 kts | 72° |
| 2026-04-20 21:10 | -2.37297 | -44.39636 | 153 ft | 30 kts | 73° |
| 2026-04-20 21:11 | -2.37221 | -44.39519 | 154 ft | 13 kts | 88° |
| 2026-04-20 21:11 | -2.37273 | -44.39564 | 153 ft | 19 kts | 253° |
| 2026-04-20 21:11 | -2.37320 | -44.39712 | 153 ft | 26 kts | 252° |
| 2026-04-20 21:11 | -2.37372 | -44.39879 | 153 ft | 21 kts | 251° |
| 2026-04-20 21:12 | -2.37416 | -44.39993 | 151 ft | 14 kts | 229° |
| 2026-04-20 21:12 | -2.37488 | -44.40010 | 151 ft | 8 kts | 162° |
| 2026-04-20 21:12 | -2.37560 | -44.39988 | 152 ft | 16 kts | 163° |
| 2026-04-20 21:12 | -2.37661 | -44.39936 | 152 ft | 11 kts | 83° |
| 2026-04-20 21:13 | -2.37685 | -44.39914 | 152 ft | 6 kts | 181° |
| 2026-04-20 21:13 | -2.37700 | -44.39910 | 152 ft | 0 kts | 160° |